createdAt,value
2023-02-06T00:02:08.668Z,104443.00
2023-02-06T00:05:11.224Z,104450.22
2023-02-06T00:08:15.140Z,104444.69
2023-02-06T00:11:17.858Z,104440.84
2023-02-06T00:14:20.438Z,104441.91
2023-02-06T00:17:23.010Z,104438.28
2023-02-06T00:20:25.589Z,104446.59
2023-02-06T00:23:29.496Z,104421.09
2023-02-06T00:26:32.308Z,104440.22
2023-02-06T00:29:34.861Z,104427.50
2023-02-06T00:32:37.482Z,104437.94
2023-02-06T00:35:40.056Z,104431.56
2023-02-06T00:38:43.936Z,104429.88
2023-02-06T00:41:46.477Z,104425.19
2023-02-06T00:44:49.068Z,104425.19
2023-02-06T00:47:51.662Z,104429.03
2023-02-06T00:50:54.512Z,104427.31
2023-02-06T00:53:58.429Z,104433.72
2023-02-06T00:57:00.999Z,104431.19
2023-02-06T01:00:03.648Z,104431.19
2023-02-06T01:03:06.225Z,104423.13
2023-02-06T01:06:08.836Z,104420.59
2023-02-06T01:09:12.798Z,104415.91
2023-02-06T01:12:15.336Z,104412.53
2023-02-06T01:15:17.858Z,104421.66
2023-02-06T01:18:20.439Z,104421.66
2023-02-06T01:21:24.045Z,104419.75
2023-02-06T01:24:28.044Z,104419.75
2023-02-06T01:27:30.593Z,104418.91
2023-02-06T01:30:33.310Z,104417.22
2023-02-06T01:33:35.895Z,104404.47
2023-02-06T01:36:38.492Z,104419.75
2023-02-06T01:39:42.372Z,104418.91
2023-02-06T01:42:45.010Z,104426.34
2023-02-06T01:45:47.736Z,104428.16
2023-02-06T01:48:51.751Z,104419.38
2023-02-06T01:51:54.692Z,104417.69
2023-02-06T01:55:00.123Z,104410.47
2023-02-06T01:58:02.635Z,104410.03
2023-02-06T02:01:05.925Z,104420.25
2023-02-06T02:04:09.393Z,104423.22
2023-02-06T02:07:13.536Z,104418.16
2023-02-06T02:10:17.512Z,104409.72
2023-02-06T02:13:20.044Z,104415.75
2023-02-06T02:16:25.073Z,104409.81
2023-02-06T02:20:13.374Z,104405.63
2023-02-06T02:23:21.469Z,104399.69
2023-02-06T02:26:47.942Z,104383.09
2023-02-06T02:30:28.439Z,104377.81
2023-02-06T02:34:05.673Z,104377.69
2023-02-06T02:37:11.961Z,104379.84
2023-02-06T02:40:19.210Z,104377.09
2023-02-06T02:43:27.022Z,104365.41
2023-02-06T02:46:31.891Z,104371.41
2023-02-06T02:49:34.650Z,104368.28
2023-02-06T02:52:38.597Z,104380.41
2023-02-06T02:55:41.220Z,104366.81
2023-02-06T02:58:43.752Z,104372.81
2023-02-06T03:01:49.732Z,104378.81
2023-02-06T03:04:53.595Z,104380.59
2023-02-06T03:08:03.853Z,104377.69
2023-02-06T03:11:10.301Z,104377.91
2023-02-06T03:14:16.525Z,104364.16
2023-02-06T03:17:20.785Z,104381.16
2023-02-06T03:20:23.313Z,104377.75
2023-02-06T03:23:29.636Z,104377.75
2023-02-06T03:26:32.228Z,104385.44
2023-02-06T03:29:35.169Z,104393.13
2023-02-06T03:32:39.619Z,104390.59
2023-02-06T03:35:42.240Z,104384.69
2023-02-06T03:38:46.461Z,104384.00
2023-02-06T03:41:49.068Z,104387.59
2023-02-06T03:44:53.657Z,104391.81
2023-02-06T03:47:57.295Z,104391.81
2023-02-06T03:51:00.503Z,104387.13
2023-02-06T03:54:05.168Z,104377.75
2023-02-06T03:57:08.565Z,104386.91
2023-02-06T04:00:12.469Z,104394.34
2023-02-06T04:03:15.005Z,104387.38
2023-02-06T04:06:17.581Z,104380.03
2023-02-06T04:09:21.475Z,104380.53
2023-02-06T04:12:24.084Z,104379.75
2023-02-06T04:15:26.606Z,104374.72
2023-02-06T04:18:29.126Z,104369.41
2023-02-06T04:21:31.640Z,104369.84
2023-02-06T04:24:36.705Z,104368.41
2023-02-06T04:27:39.354Z,104371.88
2023-02-06T04:30:42.082Z,104385.91
2023-02-06T04:33:44.743Z,104392.50
2023-02-06T04:36:47.342Z,104395.25
2023-02-06T04:39:51.261Z,104402.47
2023-02-06T04:42:53.792Z,104399.09
2023-02-06T04:45:56.383Z,104393.41
2023-02-06T04:48:58.911Z,104400.31
2023-02-06T04:52:01.442Z,104395.03
2023-02-06T04:55:05.558Z,104401.41
2023-02-06T04:58:08.086Z,104388.66
2023-02-06T05:01:10.669Z,104390.34
2023-02-06T05:04:13.238Z,104395.63
2023-02-06T05:07:15.791Z,104391.81
2023-02-06T05:10:19.883Z,104389.25
2023-02-06T05:13:22.387Z,104393.13
2023-02-06T05:16:24.976Z,104386.97
2023-02-06T05:19:27.565Z,104390.81
2023-02-06T05:22:30.150Z,104382.53
2023-02-06T05:25:35.164Z,104363.66
2023-02-06T05:28:37.863Z,104374.47
2023-02-06T05:31:40.623Z,104371.94
2023-02-06T05:34:43.184Z,104374.09
2023-02-06T05:37:45.743Z,104374.09
2023-02-06T05:40:52.320Z,104366.88
2023-02-06T05:43:54.875Z,104369.84
2023-02-06T05:46:57.605Z,104377.28
2023-02-06T05:50:00.194Z,104382.22
2023-02-06T05:53:02.751Z,104385.56
2023-02-06T05:56:07.262Z,104383.91
2023-02-06T05:59:09.805Z,104372.88
2023-02-06T06:02:12.382Z,104372.88
2023-02-06T06:05:14.964Z,104383.91
2023-02-06T06:08:17.524Z,104366.09
2023-02-06T06:11:21.440Z,104368.16
2023-02-06T06:14:24.001Z,104378.13
2023-02-06T06:17:26.572Z,104379.59
2023-02-06T06:20:29.160Z,104381.31
2023-02-06T06:23:31.736Z,104379.97
2023-02-06T06:26:35.662Z,104375.31
2023-02-06T06:29:38.270Z,104377.00
2023-02-06T06:32:40.856Z,104371.47
2023-02-06T06:35:43.452Z,104360.44
2023-02-06T06:38:46.078Z,104357.03
2023-02-06T06:41:50.014Z,104362.56
2023-02-06T06:44:52.551Z,104368.56
2023-02-06T06:47:55.078Z,104368.56
2023-02-06T06:50:57.617Z,104377.91
2023-02-06T06:54:00.180Z,104372.78
2023-02-06T06:57:04.129Z,104379.13
2023-02-06T07:00:07.391Z,104383.00
2023-02-06T07:03:11.623Z,104382.38
2023-02-06T07:06:14.243Z,104381.38
2023-02-06T07:09:17.057Z,104369.19
2023-02-06T07:12:21.065Z,104381.88
2023-02-06T07:15:23.683Z,104376.84
2023-02-06T07:18:26.215Z,104376.69
2023-02-06T07:21:28.844Z,104373.06
2023-02-06T07:24:31.380Z,104358.44
2023-02-06T07:27:35.300Z,104363.31
2023-02-06T07:30:37.866Z,104356.09
2023-02-06T07:33:40.441Z,104360.34
2023-02-06T07:36:43.101Z,104359.03
2023-02-06T07:39:45.673Z,104349.53
2023-02-06T07:42:49.630Z,104364.09
2023-02-06T07:45:52.237Z,104361.13
2023-02-06T07:48:54.777Z,104359.81
2023-02-06T07:51:57.389Z,104367.00
2023-02-06T07:54:59.941Z,104367.50
2023-02-06T07:58:03.877Z,104359.03
2023-02-06T08:01:06.760Z,104344.63
2023-02-06T08:04:09.383Z,104342.47
2023-02-06T08:07:14.891Z,104343.72
2023-02-06T08:10:17.834Z,104342.16
2023-02-06T08:13:21.729Z,104331.28
2023-02-06T08:16:24.608Z,104329.50
2023-02-06T08:19:27.177Z,104329.44
2023-02-06T08:22:29.730Z,104311.13
2023-02-06T08:25:32.328Z,104313.53
2023-02-06T08:28:36.366Z,104309.47
2023-02-06T08:31:39.825Z,104300.72
2023-02-06T08:34:42.516Z,104307.47
2023-02-06T08:37:45.059Z,104293.81
2023-02-06T08:40:47.588Z,104284.00
2023-02-06T08:43:52.750Z,104289.66
2023-02-06T08:47:08.879Z,104269.47
2023-02-06T08:50:12.414Z,104262.53
2023-02-06T08:53:14.953Z,104256.84
2023-02-06T08:56:17.483Z,104264.16
2023-02-06T08:59:21.363Z,104256.63
2023-02-06T09:02:24.049Z,104258.84
2023-02-06T09:05:26.677Z,104268.78
2023-02-06T09:08:29.204Z,104270.75
2023-02-06T09:11:31.943Z,104263.72
2023-02-06T09:14:35.824Z,104264.63
2023-02-06T09:17:38.329Z,104258.88
2023-02-06T09:20:40.853Z,104260.91
2023-02-06T09:23:44.385Z,104259.75
2023-02-06T09:26:59.113Z,104259.06
2023-02-06T09:30:04.371Z,104261.94
2023-02-06T09:33:06.955Z,104266.78
2023-02-06T09:36:11.061Z,104247.84
2023-02-06T09:39:13.674Z,104248.69
2023-02-06T09:42:26.409Z,104236.44
2023-02-06T09:45:30.665Z,104238.38
2023-02-06T09:48:34.496Z,104241.75
2023-02-06T09:51:42.355Z,104244.81
2023-02-06T09:54:47.752Z,104254.59
2023-02-06T09:57:52.861Z,104251.75
2023-02-06T10:01:06.846Z,104254.56
2023-02-06T10:04:22.480Z,104259.84
2023-02-06T10:07:44.939Z,104265.97
2023-02-06T10:10:50.031Z,104272.09
2023-02-06T10:13:55.044Z,104269.88
2023-02-06T10:17:00.861Z,104262.63
2023-02-06T10:20:05.937Z,104275.75
2023-02-06T10:23:13.504Z,104278.78
2023-02-06T10:26:18.191Z,104287.13
2023-02-06T10:29:24.653Z,104284.84
2023-02-06T10:32:35.832Z,104287.53
2023-02-06T10:35:44.228Z,104283.28
2023-02-06T10:39:12.781Z,104283.69
2023-02-06T10:42:17.676Z,104280.84
2023-02-06T10:45:30.737Z,104271.50
2023-02-06T10:48:37.167Z,104278.84
2023-02-06T10:51:42.404Z,104281.66
2023-02-06T10:54:48.520Z,104291.88
2023-02-06T10:57:54.736Z,104282.00
2023-02-06T11:00:57.349Z,104279.16
2023-02-06T11:04:04.597Z,104276.59
2023-02-06T11:07:09.212Z,104276.94
2023-02-06T11:10:13.567Z,104277.50
2023-02-06T11:13:21.486Z,104267.38
2023-02-06T11:16:26.031Z,104261.72
2023-02-06T11:19:32.116Z,104255.63
2023-02-06T11:22:44.283Z,104259.06
2023-02-06T11:25:58.825Z,104279.66
2023-02-06T11:29:03.393Z,104271.25
2023-02-06T11:32:06.745Z,104271.53
2023-02-06T11:35:21.748Z,104268.53
2023-02-06T11:38:25.708Z,104257.44
2023-02-06T11:41:28.329Z,104246.31
2023-02-06T11:44:37.946Z,104243.09
2023-02-06T11:47:40.486Z,104229.72
2023-02-06T11:50:44.413Z,104228.34
2023-02-06T11:53:56.733Z,104220.22
2023-02-06T11:57:04.845Z,104213.00
2023-02-06T12:00:20.807Z,104196.22
2023-02-06T12:03:28.351Z,104197.06
2023-02-06T12:06:33.692Z,104207.41
2023-02-06T12:09:36.228Z,104208.50
2023-02-06T12:12:40.682Z,104211.28
2023-02-06T12:15:47.330Z,104198.44
2023-02-06T12:18:50.951Z,104193.41
2023-02-06T12:21:56.270Z,104192.81
2023-02-06T12:25:00.037Z,104198.34
2023-02-06T12:28:05.679Z,104206.13
2023-02-06T12:31:10.442Z,104198.72
2023-02-06T12:34:14.908Z,104196.50
2023-02-06T12:37:22.139Z,104187.84
2023-02-06T12:40:36.136Z,104182.44
2023-02-06T12:43:38.890Z,104169.59
2023-02-06T12:46:41.501Z,104175.22
2023-02-06T12:49:50.038Z,104173.91
2023-02-06T12:52:56.593Z,104163.28
2023-02-06T12:56:02.142Z,104149.09
2023-02-06T12:59:15.535Z,104149.31
2023-02-06T13:02:22.311Z,104162.69
2023-02-06T13:05:27.637Z,104164.34
2023-02-06T13:08:43.602Z,104152.41
2023-02-06T13:11:46.164Z,104159.91
2023-02-06T13:14:50.179Z,104164.13
2023-02-06T13:17:54.215Z,104147.66
2023-02-06T13:21:16.699Z,104147.13
2023-02-06T13:24:21.220Z,104150.44
2023-02-06T13:27:24.626Z,104140.41
2023-02-06T13:30:46.447Z,104127.53
2023-02-06T13:33:49.402Z,104137.06
2023-02-06T13:36:55.170Z,104130.41
2023-02-06T13:40:20.886Z,104131.50
2023-02-06T13:43:26.642Z,104125.31
2023-02-06T13:46:39.659Z,104131.38
2023-02-06T13:50:26.367Z,104125.16
2023-02-06T13:53:36.011Z,104127.84
2023-02-06T13:56:46.182Z,104129.41
2023-02-06T13:59:50.377Z,104126.88
2023-02-06T14:02:55.218Z,104118.19
2023-02-06T14:06:01.116Z,104112.94
2023-02-06T14:09:09.427Z,104111.50
2023-02-06T14:12:32.891Z,104109.34
2023-02-06T14:15:39.446Z,104114.97
2023-02-06T14:18:45.466Z,104123.28
2023-02-06T14:21:53.020Z,104125.38
2023-02-06T14:25:05.268Z,104125.31
2023-02-06T14:28:15.228Z,104119.44
2023-02-06T14:31:24.661Z,104118.13
2023-02-06T14:34:35.485Z,104123.22
2023-02-06T14:37:55.181Z,104106.50
2023-02-06T14:40:59.261Z,104103.19
2023-02-06T14:44:03.228Z,104106.56
2023-02-06T14:47:05.825Z,104105.44
2023-02-06T14:50:09.102Z,104108.81
2023-02-06T14:53:18.674Z,104118.53
2023-02-06T14:56:26.191Z,104123.28
2023-02-06T14:59:30.446Z,104128.78
2023-02-06T15:02:36.981Z,104120.41
2023-02-06T15:05:39.508Z,104118.75
2023-02-06T15:08:48.394Z,104114.91
2023-02-06T15:11:51.752Z,104111.91
2023-02-06T15:14:56.548Z,104116.34
2023-02-06T15:18:00.320Z,104115.53
2023-02-06T15:21:03.647Z,104123.34
2023-02-06T15:24:09.128Z,104128.34
2023-02-06T15:27:15.763Z,104136.16
2023-02-06T15:30:21.502Z,104140.88
2023-02-06T15:33:27.585Z,104130.00
2023-02-06T15:36:31.866Z,104132.78
2023-02-06T15:39:34.449Z,104131.94
2023-02-06T15:42:37.066Z,104140.44
2023-02-06T15:45:41.530Z,104144.47
2023-02-06T15:48:50.458Z,104139.78
2023-02-06T15:51:53.967Z,104139.31
2023-02-06T15:54:58.063Z,104137.63
2023-02-06T15:58:01.482Z,104137.03
2023-02-06T16:01:05.918Z,104142.53
2023-02-06T16:04:10.151Z,104139.06
2023-02-06T16:07:14.192Z,104137.53
2023-02-06T16:10:21.314Z,104128.84
2023-02-06T16:13:26.488Z,104120.69
2023-02-06T16:16:30.412Z,104121.44
2023-02-06T16:19:42.181Z,104116.78
2023-02-06T16:22:44.712Z,104117.63
2023-02-06T16:25:47.368Z,104121.53
2023-02-06T16:28:57.872Z,104097.47
2023-02-06T16:32:02.834Z,104120.13
2023-02-06T16:35:05.814Z,104135.41
2023-02-06T16:38:10.137Z,104134.22
2023-02-06T16:41:25.120Z,104140.22
2023-02-06T16:44:42.993Z,104138.50
2023-02-06T16:47:48.097Z,104129.00
2023-02-06T16:50:50.675Z,104143.47
2023-02-06T16:53:53.366Z,104141.28
2023-02-06T16:56:57.017Z,104148.25
2023-02-06T16:59:59.658Z,104142.44
2023-02-06T17:03:03.570Z,104141.28
2023-02-06T17:06:06.486Z,104148.19
2023-02-06T17:09:10.964Z,104137.94
2023-02-06T17:12:14.718Z,104141.28
2023-02-06T17:15:17.943Z,104129.66
2023-02-06T17:18:22.512Z,104132.19
2023-02-06T17:21:27.299Z,104142.44
2023-02-06T17:24:29.863Z,104141.84
2023-02-06T17:27:32.403Z,104137.41
2023-02-06T17:30:35.839Z,104148.78
2023-02-06T17:33:39.936Z,104147.84
2023-02-06T17:36:43.097Z,104137.78
2023-02-06T17:39:45.678Z,104134.94
2023-02-06T17:42:48.735Z,104144.56
2023-02-06T17:45:51.290Z,104133.13
2023-02-06T17:48:55.166Z,104134.22
2023-02-06T17:51:57.695Z,104138.09
2023-02-06T17:55:00.269Z,104128.03
2023-02-06T17:58:02.933Z,104137.38
2023-02-06T18:01:05.564Z,104138.47
2023-02-06T18:04:12.554Z,104137.06
2023-02-06T18:07:15.150Z,104127.81
2023-02-06T18:10:17.881Z,104126.97
2023-02-06T18:13:21.084Z,104122.78
2023-02-06T18:16:24.963Z,104123.31
2023-02-06T18:19:28.902Z,104114.38
2023-02-06T18:22:38.085Z,104113.72
2023-02-06T18:25:43.154Z,104107.34
2023-02-06T18:28:45.991Z,104106.16
2023-02-06T18:31:48.670Z,104101.22
2023-02-06T18:34:52.601Z,104099.34
2023-02-06T18:37:55.392Z,104103.13
2023-02-06T18:41:02.896Z,104091.72
2023-02-06T18:44:04.850Z,104088.00
2023-02-06T18:47:07.426Z,104082.78
2023-02-06T18:50:11.455Z,104082.94
2023-02-06T18:53:14.085Z,104082.25
2023-02-06T18:56:16.748Z,104079.88
2023-02-06T18:59:19.357Z,104077.78
2023-02-06T19:02:22.047Z,104076.75
2023-02-06T19:05:25.988Z,104088.06
2023-02-06T19:08:28.556Z,104091.28
2023-02-06T19:11:31.080Z,104090.22
2023-02-06T19:14:33.677Z,104077.97
2023-02-06T19:17:36.233Z,104084.81
2023-02-06T19:20:43.285Z,104086.16
2023-02-06T19:23:46.354Z,104079.41
2023-02-06T19:26:48.951Z,104077.75
2023-02-06T19:29:51.500Z,104070.19
2023-02-06T19:32:54.084Z,104066.34
2023-02-06T19:35:58.017Z,104073.19
2023-02-06T19:39:01.507Z,104070.91
2023-02-06T19:42:06.615Z,104074.66
2023-02-06T19:45:09.511Z,104075.66
2023-02-06T19:48:13.744Z,104068.81
2023-02-06T19:51:20.138Z,104075.81
2023-02-06T19:54:22.732Z,104063.78
2023-02-06T19:57:25.263Z,104056.19
2023-02-06T20:00:27.878Z,104056.34
2023-02-06T20:03:30.701Z,104049.63
2023-02-06T20:06:35.424Z,104045.06
2023-02-06T20:09:41.676Z,104047.47
2023-02-06T20:12:44.277Z,104043.75
2023-02-06T20:15:46.896Z,104041.13
2023-02-06T20:18:49.446Z,104039.91
2023-02-06T20:21:54.348Z,104045.31
2023-02-06T20:24:56.965Z,104036.63
2023-02-06T20:27:59.970Z,104039.88
2023-02-06T20:31:08.500Z,104030.00
2023-02-06T20:34:11.177Z,104036.50
2023-02-06T20:37:17.579Z,104033.16
2023-02-06T20:40:20.277Z,104036.59
2023-02-06T20:43:22.918Z,104042.38
2023-02-06T20:46:26.379Z,104038.41
2023-02-06T20:49:31.221Z,104036.72
2023-02-06T20:52:35.313Z,104042.72
2023-02-06T20:55:41.516Z,104043.44
2023-02-06T20:58:44.237Z,104041.38
2023-02-06T21:01:46.785Z,104049.81
2023-02-06T21:04:52.047Z,104063.00
2023-02-06T21:07:57.590Z,104057.72
2023-02-06T21:11:00.271Z,104056.88
2023-02-06T21:14:03.669Z,104061.53
2023-02-06T21:17:06.224Z,104059.63
2023-02-06T21:20:09.745Z,104056.75
2023-02-06T21:23:13.724Z,104069.34
2023-02-06T21:26:17.521Z,104070.28
2023-02-06T21:29:22.847Z,104070.28
2023-02-06T21:32:25.476Z,104069.06
2023-02-06T21:35:30.202Z,104062.66
2023-02-06T21:38:34.213Z,104065.59
2023-02-06T21:41:36.824Z,104058.59
2023-02-06T21:44:39.366Z,104065.50
2023-02-06T21:47:42.047Z,104067.28
2023-02-06T21:50:44.969Z,104063.91
2023-02-06T21:53:48.910Z,104055.88
2023-02-06T21:56:51.628Z,104059.69
2023-02-06T21:59:54.150Z,104054.19
2023-02-06T22:02:56.741Z,104046.97
2023-02-06T22:06:07.326Z,104039.34
2023-02-06T22:09:16.252Z,104037.16
2023-02-06T22:12:18.848Z,104021.09
2023-02-06T22:15:21.478Z,104028.75
2023-02-06T22:18:24.057Z,104028.63
2023-02-06T22:21:27.443Z,104041.16
2023-02-06T22:24:31.322Z,104035.63
2023-02-06T22:27:33.933Z,104045.00
2023-02-06T22:30:36.567Z,104047.16
2023-02-06T22:33:39.250Z,104049.28
2023-02-06T22:36:42.693Z,104041.50
2023-02-06T22:39:46.840Z,104022.78
2023-02-06T22:42:49.375Z,104048.91
2023-02-06T22:45:51.961Z,104051.91
2023-02-06T22:48:54.523Z,104046.84
2023-02-06T22:51:57.872Z,104043.47
2023-02-06T22:55:03.175Z,104040.09
2023-02-06T22:58:05.724Z,104050.28
2023-02-06T23:01:08.288Z,104046.53
2023-02-06T23:04:12.411Z,104046.22
2023-02-06T23:07:15.087Z,104051.34
2023-02-06T23:10:19.483Z,104063.91
2023-02-06T23:13:22.088Z,104064.13
2023-02-06T23:16:24.857Z,104066.72
2023-02-06T23:19:27.413Z,104073.28
2023-02-06T23:22:29.941Z,104067.19
2023-02-06T23:25:33.889Z,104073.50
2023-02-06T23:28:36.475Z,104068.84
2023-02-06T23:31:39.054Z,104068.84
2023-02-06T23:34:41.589Z,104070.53
2023-02-06T23:37:44.138Z,104071.38
2023-02-06T23:40:48.660Z,104067.19
2023-02-06T23:43:51.506Z,104066.56
2023-02-06T23:46:54.266Z,104051.56
2023-02-06T23:49:56.845Z,104060.66
2023-02-06T23:52:59.425Z,104068.31
2023-02-06T23:56:03.782Z,104066.00
2023-02-06T23:59:06.573Z,104062.66
